Time,TemperatureF,DewpointF,PressureIn,WindDirection,WindDirectionDegrees,WindSpeedMPH,WindSpeedGustMPH,Humidity,HourlyPrecipIn,Conditions,Clouds,dailyrainin,SoftwareType,DateUTC
2013-04-06 00:00:00,30.8,21.5,30.23,ENE,68,0.0,1.0,68,0.00,,,0.00,Wunderground v.1.13,2013-04-06 04:00:00,
2013-04-06 00:05:00,30.8,21.5,30.23,ENE,68,0.0,1.0,68,0.00,,,0.00,Wunderground v.1.13,2013-04-06 04:05:00,
2013-04-06 00:10:00,30.7,21.4,30.23,ENE,68,0.0,2.0,68,0.00,,,0.00,Wunderground v.1.13,2013-04-06 04:10:00,
2013-04-06 00:15:00,30.6,21.3,30.23,ENE,68,0.0,1.0,68,0.00,,,0.00,Wunderground v.1.13,2013-04-06 04:15:00,
2013-04-06 00:20:00,30.4,21.1,30.23,ENE,68,0.0,1.0,68,0.00,,,0.00,Wunderground v.1.13,2013-04-06 04:20:00,
2013-04-06 00:25:00,30.3,21.0,30.23,ENE,68,0.0,1.0,68,0.00,,,0.00,Wunderground v.1.13,2013-04-06 04:25:00,
2013-04-06 00:30:00,30.2,20.9,30.23,ENE,68,0.0,2.0,68,0.00,,,0.00,Wunderground v.1.13,2013-04-06 04:30:00,
2013-04-06 00:35:00,30.2,20.9,30.23,ENE,68,0.0,1.0,68,0.00,,,0.00,Wunderground v.1.13,2013-04-06 04:35:00,
2013-04-06 00:40:00,30.1,20.8,30.23,ENE,68,0.0,1.0,68,0.00,,,0.00,Wunderground v.1.13,2013-04-06 04:40:00,
2013-04-06 00:45:00,30.1,20.8,30.22,ENE,68,0.0,1.0,68,0.00,,,0.00,Wunderground v.1.13,2013-04-06 04:45:00,
2013-04-06 00:50:00,30.0,20.4,30.22,N/A,-737280,0.0,0.0,67,0.00,,,0.00,Wunderground v.1.13,2013-04-06 04:50:00,
2013-04-06 00:55:00,29.9,20.6,30.22,N/A,-737280,0.0,0.0,68,0.00,,,0.00,Wunderground v.1.13,2013-04-06 04:55:00,
2013-04-06 01:00:00,29.8,20.5,30.22,N/A,-737280,0.0,0.0,68,0.00,,,0.00,Wunderground v.1.13,2013-04-06 05:00:00,
2013-04-06 01:05:00,29.6,20.7,30.22,N/A,-737280,0.0,0.0,69,0.00,,,0.00,Wunderground v.1.13,2013-04-06 05:05:00,
2013-04-06 01:10:00,29.6,20.7,30.22,N/A,-737280,0.0,0.0,69,0.00,,,0.00,Wunderground v.1.13,2013-04-06 05:10:00,
2013-04-06 01:15:00,29.5,20.6,30.22,N/A,-737280,0.0,0.0,69,0.00,,,0.00,Wunderground v.1.13,2013-04-06 05:15:00,
2013-04-06 01:20:00,29.4,20.5,30.22,N/A,-737280,0.0,0.0,69,0.00,,,0.00,Wunderground v.1.13,2013-04-06 05:20:00,
2013-04-06 01:25:00,29.2,20.3,30.23,N/A,-737280,0.0,0.0,69,0.00,,,0.00,Wunderground v.1.13,2013-04-06 05:25:00,
2013-04-06 01:30:00,29.1,20.2,30.23,N/A,-737280,0.0,0.0,69,0.00,,,0.00,Wunderground v.1.13,2013-04-06 05:30:00,
2013-04-06 01:35:00,29.0,20.1,30.23,N/A,-737280,0.0,0.0,69,0.00,,,0.00,Wunderground v.1.13,2013-04-06 05:35:00,
2013-04-06 01:40:00,28.9,20.0,30.23,N/A,-737280,0.0,0.0,69,0.00,,,0.00,Wunderground v.1.13,2013-04-06 05:40:00,
2013-04-06 01:45:00,28.8,19.9,30.23,N/A,-737280,0.0,0.0,69,0.00,,,0.00,Wunderground v.1.13,2013-04-06 05:45:00,
2013-04-06 01:50:00,28.7,20.1,30.23,N/A,-737280,0.0,0.0,70,0.00,,,0.00,Wunderground v.1.13,2013-04-06 05:50:00,
2013-04-06 01:55:00,28.6,20.1,30.23,N/A,-737280,0.0,0.0,70,0.00,,,0.00,Wunderground v.1.13,2013-04-06 05:55:00,
2013-04-06 02:00:00,28.4,20.2,30.24,N/A,-737280,0.0,0.0,71,0.00,,,0.00,Wunderground v.1.13,2013-04-06 06:00:00,
2013-04-06 02:05:00,28.3,20.1,30.24,N/A,-737280,0.0,0.0,71,0.00,,,0.00,Wunderground v.1.13,2013-04-06 06:05:00,
2013-04-06 02:10:00,28.3,20.1,30.24,N/A,-737280,0.0,0.0,71,0.00,,,0.00,Wunderground v.1.13,2013-04-06 06:10:00,
2013-04-06 02:15:00,28.3,20.1,30.24,N/A,-737280,0.0,0.0,71,0.00,,,0.00,Wunderground v.1.13,2013-04-06 06:15:00,
2013-04-06 02:20:00,28.3,20.1,30.25,N/A,-737280,0.0,0.0,71,0.00,,,0.00,Wunderground v.1.13,2013-04-06 06:20:00,
2013-04-06 02:25:00,28.2,20.0,30.25,N/A,-737280,0.0,0.0,71,0.00,,,0.00,Wunderground v.1.13,2013-04-06 06:25:00,
2013-04-06 02:30:00,28.1,19.9,30.25,N/A,-737280,0.0,0.0,71,0.00,,,0.00,Wunderground v.1.13,2013-04-06 06:30:00,
2013-04-06 02:35:00,27.9,19.7,30.25,N/A,-737280,0.0,0.0,71,0.00,,,0.00,Wunderground v.1.13,2013-04-06 06:35:00,
2013-04-06 02:40:00,27.8,19.9,30.25,N/A,-737280,0.0,0.0,72,0.00,,,0.00,Wunderground v.1.13,2013-04-06 06:40:00,
2013-04-06 02:45:00,27.7,19.8,30.25,N/A,-737280,0.0,0.0,72,0.00,,,0.00,Wunderground v.1.13,2013-04-06 06:45:00,
2013-04-06 02:50:00,27.6,19.8,30.25,N/A,-737280,0.0,0.0,72,0.00,,,0.00,Wunderground v.1.13,2013-04-06 06:50:00,
2013-04-06 02:55:00,27.5,20.0,30.25,N/A,-737280,0.0,0.0,73,0.00,,,0.00,Wunderground v.1.13,2013-04-06 06:55:00,
2013-04-06 03:00:00,27.5,20.0,30.25,N/A,-737280,0.0,0.0,73,0.00,,,0.00,Wunderground v.1.13,2013-04-06 07:00:00,
2013-04-06 03:05:00,27.4,19.9,30.25,N/A,-737280,0.0,0.0,73,0.00,,,0.00,Wunderground v.1.13,2013-04-06 07:05:00,
2013-04-06 03:15:00,27.2,19.7,30.26,N/A,-737280,0.0,0.0,73,0.00,,,0.00,Wunderground v.1.13,2013-04-06 07:15:00,
2013-04-06 03:20:00,27.1,19.9,30.26,N/A,-737280,0.0,0.0,74,0.00,,,0.00,Wunderground v.1.13,2013-04-06 07:20:00,
2013-04-06 03:25:00,27.0,19.8,30.26,N/A,-737280,0.0,0.0,74,0.00,,,0.00,Wunderground v.1.13,2013-04-06 07:25:00,
2013-04-06 03:30:00,26.9,19.7,30.26,N/A,-737280,0.0,0.0,74,0.00,,,0.00,Wunderground v.1.13,2013-04-06 07:30:00,
2013-04-06 03:35:00,26.8,19.6,30.26,N/A,-737280,0.0,0.0,74,0.00,,,0.00,Wunderground v.1.13,2013-04-06 07:35:00,
2013-04-06 03:40:00,26.7,19.5,30.27,N/A,-737280,0.0,0.0,74,0.00,,,0.00,Wunderground v.1.13,2013-04-06 07:40:00,
2013-04-06 03:45:00,26.7,19.8,30.27,N/A,-737280,0.0,0.0,75,0.00,,,0.00,Wunderground v.1.13,2013-04-06 07:45:00,
2013-04-06 03:50:00,26.6,19.7,30.27,N/A,-737280,0.0,0.0,75,0.00,,,0.00,Wunderground v.1.13,2013-04-06 07:50:00,
2013-04-06 03:55:00,26.5,19.6,30.27,N/A,-737280,0.0,0.0,75,0.00,,,0.00,Wunderground v.1.13,2013-04-06 07:55:00,
2013-04-06 04:00:00,26.4,19.9,30.27,N/A,-737280,0.0,0.0,76,0.00,,,0.00,Wunderground v.1.13,2013-04-06 08:00:00,
2013-04-06 04:05:00,26.4,19.9,30.27,N/A,-737280,0.0,0.0,76,0.00,,,0.00,Wunderground v.1.13,2013-04-06 08:05:00,
2013-04-06 04:10:00,26.3,19.8,30.28,N/A,-737280,0.0,0.0,76,0.00,,,0.00,Wunderground v.1.13,2013-04-06 08:10:00,
2013-04-06 04:15:00,26.2,19.7,30.28,N/A,-737280,0.0,0.0,76,0.00,,,0.00,Wunderground v.1.13,2013-04-06 08:15:00,
2013-04-06 04:20:00,26.2,20.0,30.27,N/A,-737280,0.0,0.0,77,0.00,,,0.00,Wunderground v.1.13,2013-04-06 08:20:00,
2013-04-06 04:25:00,26.2,20.3,30.27,N/A,-737280,0.0,0.0,78,0.00,,,0.00,Wunderground v.1.13,2013-04-06 08:25:00,
2013-04-06 04:30:00,26.1,19.9,30.27,N/A,-737280,0.0,0.0,77,0.00,,,0.00,Wunderground v.1.13,2013-04-06 08:30:00,
2013-04-06 04:35:00,26.0,19.8,30.28,N/A,-737280,0.0,0.0,77,0.00,,,0.00,Wunderground v.1.13,2013-04-06 08:35:00,
2013-04-06 04:40:00,26.0,20.1,30.28,N/A,-737280,0.0,0.0,78,0.00,,,0.00,Wunderground v.1.13,2013-04-06 08:40:00,
2013-04-06 04:45:00,26.0,20.1,30.28,N/A,-737280,0.0,0.0,78,0.00,,,0.00,Wunderground v.1.13,2013-04-06 08:45:00,
2013-04-06 04:50:00,25.9,20.0,30.28,N/A,-737280,0.0,0.0,78,0.00,,,0.00,Wunderground v.1.13,2013-04-06 08:50:00,
2013-04-06 04:55:00,25.9,20.0,30.29,N/A,-737280,0.0,0.0,78,0.00,,,0.00,Wunderground v.1.13,2013-04-06 08:55:00,
2013-04-06 05:00:00,25.9,20.3,30.29,N/A,-737280,0.0,0.0,79,0.00,,,0.00,Wunderground v.1.13,2013-04-06 09:00:00,
2013-04-06 05:05:00,25.9,20.3,30.29,N/A,-737280,0.0,0.0,79,0.00,,,0.00,Wunderground v.1.13,2013-04-06 09:05:00,
2013-04-06 05:10:00,26.0,20.4,30.29,N/A,-737280,0.0,0.0,79,0.00,,,0.00,Wunderground v.1.13,2013-04-06 09:10:00,
2013-04-06 05:15:00,26.0,20.4,30.29,N/A,-737280,0.0,0.0,79,0.00,,,0.00,Wunderground v.1.13,2013-04-06 09:15:00,
2013-04-06 05:20:00,26.1,20.5,30.30,N/A,-737280,0.0,0.0,79,0.00,,,0.00,Wunderground v.1.13,2013-04-06 09:20:00,
2013-04-06 05:25:00,26.2,20.9,30.30,N/A,-737280,0.0,0.0,80,0.00,,,0.00,Wunderground v.1.13,2013-04-06 09:25:00,
2013-04-06 05:30:00,26.6,21.3,30.30,N/A,-737280,0.0,0.0,80,0.00,,,0.00,Wunderground v.1.13,2013-04-06 09:30:00,
2013-04-06 05:35:00,26.9,21.8,30.30,N/A,-737280,0.0,0.0,81,0.00,,,0.00,Wunderground v.1.13,2013-04-06 09:35:00,
2013-04-06 05:40:00,27.5,22.4,30.31,N/A,-737280,0.0,0.0,81,0.00,,,0.00,Wunderground v.1.13,2013-04-06 09:40:00,
2013-04-06 05:45:00,28.1,22.7,30.31,ENE,68,0.0,1.0,80,0.00,,,0.00,Wunderground v.1.13,2013-04-06 09:45:00,
2013-04-06 05:50:00,28.5,22.8,30.31,N/A,-737280,0.0,0.0,79,0.00,,,0.00,Wunderground v.1.13,2013-04-06 09:50:00,
2013-04-06 05:55:00,28.9,22.9,30.31,ENE,68,0.0,2.0,78,0.00,,,0.00,Wunderground v.1.13,2013-04-06 09:55:00,
2013-04-06 06:00:00,29.7,23.4,30.31,ENE,68,0.0,2.0,77,0.00,,,0.00,Wunderground v.1.13,2013-04-06 10:00:00,
2013-04-06 06:05:00,30.1,23.4,30.31,ENE,68,0.0,1.0,76,0.00,,,0.00,Wunderground v.1.13,2013-04-06 10:05:00,
2013-04-06 06:10:00,30.9,23.6,30.32,ENE,68,0.0,1.0,74,0.00,,,0.00,Wunderground v.1.13,2013-04-06 10:10:00,
2013-04-06 06:15:00,31.7,24.0,30.32,ENE,68,0.0,1.0,73,0.00,,,0.00,Wunderground v.1.13,2013-04-06 10:15:00,
2013-04-06 06:20:00,32.5,24.5,30.32,ENE,68,0.0,1.0,72,0.00,,,0.00,Wunderground v.1.13,2013-04-06 10:20:00,
2013-04-06 06:25:00,33.8,25.4,30.32,ENE,68,0.0,1.0,71,0.00,,,0.00,Wunderground v.1.13,2013-04-06 10:25:00,
2013-04-06 06:30:00,34.4,24.2,30.31,ENE,68,0.0,2.0,66,0.00,,,0.00,Wunderground v.1.13,2013-04-06 10:30:00,
2013-04-06 06:35:00,34.2,24.0,30.31,SSE,158,0.0,1.0,66,0.00,,,0.00,Wunderground v.1.13,2013-04-06 10:35:00,
2013-04-06 06:40:00,34.3,23.7,30.31,SSE,158,0.0,2.0,65,0.00,,,0.00,Wunderground v.1.13,2013-04-06 10:40:00,
2013-04-06 06:45:00,34.4,23.8,30.31,SSE,158,0.0,3.0,65,0.00,,,0.00,Wunderground v.1.13,2013-04-06 10:45:00,
2013-04-06 06:55:00,35.7,23.9,30.30,SE,135,1.0,4.0,62,0.00,,,0.00,Wunderground v.1.13,2013-04-06 10:55:00,
2013-04-06 07:00:00,35.8,23.3,30.30,SSE,158,1.0,4.0,60,0.00,,,0.00,Wunderground v.1.13,2013-04-06 11:00:00,
2013-04-06 07:05:00,35.7,22.8,30.30,SE,135,1.0,5.0,59,0.00,,,0.00,Wunderground v.1.13,2013-04-06 11:05:00,
2013-04-06 07:10:00,35.9,22.5,30.30,SE,135,1.0,5.0,58,0.00,,,0.00,Wunderground v.1.13,2013-04-06 11:10:00,
2013-04-06 07:15:00,35.9,22.1,30.30,South,180,1.0,3.0,57,0.00,,,0.00,Wunderground v.1.13,2013-04-06 11:15:00,
2013-04-06 07:20:00,36.1,20.6,30.30,SE,135,1.0,7.0,53,0.00,,,0.00,Wunderground v.1.13,2013-04-06 11:20:00,
2013-04-06 07:25:00,36.8,20.8,30.30,SSE,158,2.0,4.0,52,0.00,,,0.00,Wunderground v.1.13,2013-04-06 11:25:00,
2013-04-06 07:30:00,37.3,20.8,30.31,SE,135,1.0,5.0,51,0.00,,,0.00,Wunderground v.1.13,2013-04-06 11:30:00,
2013-04-06 07:35:00,37.5,21.0,30.30,South,180,2.0,4.0,51,0.00,,,0.00,Wunderground v.1.13,2013-04-06 11:35:00,
2013-04-06 07:40:00,38.0,20.5,30.30,SE,135,1.0,5.0,49,0.00,,,0.00,Wunderground v.1.13,2013-04-06 11:40:00,
2013-04-06 07:45:00,38.5,21.0,30.31,SE,135,2.0,6.0,49,0.00,,,0.00,Wunderground v.1.13,2013-04-06 11:45:00,
2013-04-06 07:50:00,38.7,20.7,30.31,SE,135,1.0,5.0,48,0.00,,,0.00,Wunderground v.1.13,2013-04-06 11:50:00,
2013-04-06 07:55:00,39.0,20.9,30.31,SE,135,2.0,6.0,48,0.00,,,0.00,Wunderground v.1.13,2013-04-06 11:55:00,
2013-04-06 08:00:00,39.2,21.6,30.31,South,180,1.0,3.0,49,0.00,,,0.00,Wunderground v.1.13,2013-04-06 12:00:00,
2013-04-06 08:05:00,39.9,21.8,30.30,SE,135,2.0,7.0,48,0.00,,,0.00,Wunderground v.1.13,2013-04-06 12:05:00,
2013-04-06 08:10:00,40.0,21.4,30.30,SE,135,2.0,7.0,47,0.00,,,0.00,Wunderground v.1.13,2013-04-06 12:10:00,
2013-04-06 08:15:00,40.3,21.1,30.30,SE,135,3.0,7.0,46,0.00,,,0.00,Wunderground v.1.13,2013-04-06 12:15:00,
2013-04-06 08:20:00,40.4,22.7,30.30,SE,135,3.0,7.0,49,0.00,,,0.00,Wunderground v.1.13,2013-04-06 12:20:00,
2013-04-06 08:25:00,40.6,20.9,30.30,SE,135,2.0,8.0,45,0.00,,,0.00,Wunderground v.1.13,2013-04-06 12:25:00,
2013-04-06 08:30:00,41.3,21.5,30.30,SE,135,1.0,6.0,45,0.00,,,0.00,Wunderground v.1.13,2013-04-06 12:30:00,
2013-04-06 08:35:00,41.7,21.9,30.31,SSE,158,1.0,5.0,45,0.00,,,0.00,Wunderground v.1.13,2013-04-06 12:35:00,
2013-04-06 08:40:00,42.3,21.9,30.30,SE,135,2.0,7.0,44,0.00,,,0.00,Wunderground v.1.13,2013-04-06 12:40:00,
2013-04-06 08:45:00,42.3,20.8,30.30,SE,135,2.0,7.0,42,0.00,,,0.00,Wunderground v.1.13,2013-04-06 12:45:00,
2013-04-06 08:50:00,42.7,22.3,30.29,SE,135,2.0,6.0,44,0.00,,,0.00,Wunderground v.1.13,2013-04-06 12:50:00,
2013-04-06 08:55:00,43.1,21.0,30.29,SE,135,2.0,8.0,41,0.00,,,0.00,Wunderground v.1.13,2013-04-06 12:55:00,
2013-04-06 09:00:00,43.1,19.2,30.29,SE,135,3.0,7.0,38,0.00,,,0.00,Wunderground v.1.13,2013-04-06 13:00:00,
2013-04-06 09:05:00,43.4,18.2,30.29,SE,135,2.0,8.0,36,0.00,,,0.00,Wunderground v.1.13,2013-04-06 13:05:00,
2013-04-06 09:10:00,43.7,18.5,30.29,SSW,203,3.0,6.0,36,0.00,,,0.00,Wunderground v.1.13,2013-04-06 13:10:00,
2013-04-06 09:15:00,44.2,19.5,30.28,SE,135,2.0,7.0,37,0.00,,,0.00,Wunderground v.1.13,2013-04-06 13:15:00,
2013-04-06 09:20:00,44.4,19.7,30.28,SE,135,2.0,7.0,37,0.00,,,0.00,Wunderground v.1.13,2013-04-06 13:20:00,
2013-04-06 09:25:00,44.7,18.0,30.28,SE,135,4.0,8.0,34,0.00,,,0.00,Wunderground v.1.13,2013-04-06 13:25:00,
2013-04-06 09:30:00,44.7,18.7,30.28,SE,135,2.0,5.0,35,0.00,,,0.00,Wunderground v.1.13,2013-04-06 13:30:00,
2013-04-06 09:35:00,45.3,19.9,30.28,SE,135,2.0,8.0,36,0.00,,,0.00,Wunderground v.1.13,2013-04-06 13:35:00,
2013-04-06 09:40:00,45.8,18.3,30.28,SE,135,3.0,7.0,33,0.00,,,0.00,Wunderground v.1.13,2013-04-06 13:40:00,
2013-04-06 09:45:00,46.2,19.3,30.28,ESE,113,3.0,8.0,34,0.00,,,0.00,Wunderground v.1.13,2013-04-06 13:45:00,
2013-04-06 09:50:00,46.2,20.0,30.28,SE,135,2.0,8.0,35,0.00,,,0.00,Wunderground v.1.13,2013-04-06 13:50:00,
2013-04-06 09:55:00,46.8,18.5,30.28,SSE,158,2.0,7.0,32,0.00,,,0.00,Wunderground v.1.13,2013-04-06 13:55:00,
2013-04-06 10:00:00,47.7,17.7,30.28,ENE,68,2.0,6.0,30,0.00,,,0.00,Wunderground v.1.13,2013-04-06 14:00:00,
2013-04-06 10:05:00,47.9,17.1,30.28,SE,135,3.0,8.0,29,0.00,,,0.00,Wunderground v.1.13,2013-04-06 14:05:00,
2013-04-06 10:10:00,47.5,16.8,30.27,SE,135,2.0,7.0,29,0.00,,,0.00,Wunderground v.1.13,2013-04-06 14:10:00,
2013-04-06 10:15:00,47.6,16.9,30.26,SSW,203,2.0,6.0,29,0.00,,,0.00,Wunderground v.1.13,2013-04-06 14:15:00,
2013-04-06 10:20:00,47.9,17.1,30.26,ESE,113,2.0,7.0,29,0.00,,,0.00,Wunderground v.1.13,2013-04-06 14:20:00,
2013-04-06 10:25:00,48.6,18.5,30.26,NE,45,2.0,7.0,30,0.00,,,0.00,Wunderground v.1.13,2013-04-06 14:25:00,
2013-04-06 10:30:00,48.6,16.9,30.26,SE,135,3.0,8.0,28,0.00,,,0.00,Wunderground v.1.13,2013-04-06 14:30:00,
2013-04-06 10:35:00,48.5,16.0,30.25,NNW,338,2.0,6.0,27,0.00,,,0.00,Wunderground v.1.13,2013-04-06 14:35:00,
2013-04-06 10:40:00,48.6,17.7,30.25,NNW,338,2.0,7.0,29,0.00,,,0.00,Wunderground v.1.13,2013-04-06 14:40:00,
2013-04-06 10:45:00,49.4,19.2,30.25,SE,135,4.0,9.0,30,0.00,,,0.00,Wunderground v.1.13,2013-04-06 14:45:00,
2013-04-06 10:50:00,49.5,18.5,30.25,ENE,68,2.0,7.0,29,0.00,,,0.00,Wunderground v.1.13,2013-04-06 14:50:00,
2013-04-06 10:55:00,50.0,17.3,30.25,NE,45,2.0,4.0,27,0.00,,,0.00,Wunderground v.1.13,2013-04-06 14:55:00,
2013-04-06 11:00:00,49.4,15.9,30.24,SE,135,2.0,7.0,26,0.00,,,0.00,Wunderground v.1.13,2013-04-06 15:00:00,
2013-04-06 11:05:00,49.8,15.3,30.24,SE,135,3.0,8.0,25,0.00,,,0.00,Wunderground v.1.13,2013-04-06 15:05:00,
2013-04-06 11:10:00,50.0,17.3,30.24,SE,135,2.0,7.0,27,0.00,,,0.00,Wunderground v.1.13,2013-04-06 15:10:00,
2013-04-06 11:15:00,50.6,17.8,30.23,NE,45,2.0,8.0,27,0.00,,,0.00,Wunderground v.1.13,2013-04-06 15:15:00,
2013-04-06 11:20:00,51.1,15.5,30.23,WSW,248,2.0,4.0,24,0.00,,,0.00,Wunderground v.1.13,2013-04-06 15:20:00,
2013-04-06 11:25:00,51.1,17.4,30.23,SE,135,3.0,9.0,26,0.00,,,0.00,Wunderground v.1.13,2013-04-06 15:25:00,
2013-04-06 11:30:00,51.0,17.3,30.23,SE,135,2.0,5.0,26,0.00,,,0.00,Wunderground v.1.13,2013-04-06 15:30:00,
2013-04-06 11:35:00,51.4,16.7,30.22,SE,135,2.0,5.0,25,0.00,,,0.00,Wunderground v.1.13,2013-04-06 15:35:00,
2013-04-06 11:40:00,51.9,18.9,30.22,ESE,113,1.0,6.0,27,0.00,,,0.00,Wunderground v.1.13,2013-04-06 15:40:00,
2013-04-06 11:45:00,52.2,18.3,30.22,SW,225,1.0,5.0,26,0.00,,,0.00,Wunderground v.1.13,2013-04-06 15:45:00,
2013-04-06 11:50:00,52.9,21.5,30.21,ENE,68,2.0,7.0,29,0.00,,,0.00,Wunderground v.1.13,2013-04-06 15:50:00,
2013-04-06 11:55:00,53.4,19.3,30.21,ESE,113,2.0,7.0,26,0.00,,,0.00,Wunderground v.1.13,2013-04-06 15:55:00,
2013-04-06 12:00:00,53.0,19.9,30.21,SE,135,3.0,10.0,27,0.00,,,0.00,Wunderground v.1.13,2013-04-06 16:00:00,
2013-04-06 12:05:00,52.6,18.6,30.20,SE,135,2.0,6.0,26,0.00,,,0.00,Wunderground v.1.13,2013-04-06 16:05:00,
2013-04-06 12:10:00,53.1,20.0,30.21,SE,135,3.0,8.0,27,0.00,,,0.00,Wunderground v.1.13,2013-04-06 16:10:00,
2013-04-06 12:15:00,53.5,18.5,30.20,SE,135,2.0,7.0,25,0.00,,,0.00,Wunderground v.1.13,2013-04-06 16:15:00,
2013-04-06 12:20:00,53.2,19.2,30.20,SW,225,4.0,8.0,26,0.00,,,0.00,Wunderground v.1.13,2013-04-06 16:20:00,
2013-04-06 12:25:00,53.5,19.4,30.20,West,270,3.0,6.0,26,0.00,,,0.00,Wunderground v.1.13,2013-04-06 16:25:00,
2013-04-06 12:30:00,53.9,18.8,30.19,SE,135,3.0,10.0,25,0.00,,,0.00,Wunderground v.1.13,2013-04-06 16:30:00,
2013-04-06 12:35:00,53.9,19.8,30.19,ESE,113,3.0,7.0,26,0.00,,,0.00,Wunderground v.1.13,2013-04-06 16:35:00,
2013-04-06 12:40:00,53.7,20.5,30.19,SE,135,3.0,8.0,27,0.00,,,0.00,Wunderground v.1.13,2013-04-06 16:40:00,
2013-04-06 12:45:00,53.7,20.5,30.18,East,90,2.0,5.0,27,0.00,,,0.00,Wunderground v.1.13,2013-04-06 16:45:00,
2013-04-06 12:50:00,54.6,20.4,30.17,NNW,338,2.0,4.0,26,0.00,,,0.00,Wunderground v.1.13,2013-04-06 16:50:00,
2013-04-06 12:55:00,55.3,21.8,30.17,SE,135,2.0,5.0,27,0.00,,,0.00,Wunderground v.1.13,2013-04-06 16:55:00,
2013-04-06 13:00:00,55.9,20.5,30.17,WSW,248,2.0,5.0,25,0.00,,,0.00,Wunderground v.1.13,2013-04-06 17:00:00,
2013-04-06 13:05:00,56.4,21.0,30.17,ESE,113,2.0,7.0,25,0.00,,,0.00,Wunderground v.1.13,2013-04-06 17:05:00,
2013-04-06 13:10:00,56.4,19.0,30.17,SE,135,2.0,6.0,23,0.00,,,0.00,Wunderground v.1.13,2013-04-06 17:10:00,
2013-04-06 13:15:00,55.9,19.6,30.16,SE,135,3.0,8.0,24,0.00,,,0.00,Wunderground v.1.13,2013-04-06 17:15:00,
2013-04-06 13:20:00,55.9,20.5,30.16,SE,135,3.0,11.0,25,0.00,,,0.00,Wunderground v.1.13,2013-04-06 17:20:00,
2013-04-06 13:25:00,55.9,18.6,30.16,SE,135,1.0,5.0,23,0.00,,,0.00,Wunderground v.1.13,2013-04-06 17:25:00,
2013-04-06 13:30:00,56.2,18.8,30.15,SSW,203,2.0,6.0,23,0.00,,,0.00,Wunderground v.1.13,2013-04-06 17:30:00,
2013-04-06 13:35:00,56.6,19.2,30.15,SSE,158,2.0,6.0,23,0.00,,,0.00,Wunderground v.1.13,2013-04-06 17:35:00,
2013-04-06 13:40:00,56.9,19.4,30.15,South,180,2.0,7.0,23,0.00,,,0.00,Wunderground v.1.13,2013-04-06 17:40:00,
2013-04-06 13:45:00,56.9,19.4,30.15,SE,135,2.0,7.0,23,0.00,,,0.00,Wunderground v.1.13,2013-04-06 17:45:00,
2013-04-06 13:50:00,57.1,18.6,30.15,SW,225,3.0,8.0,22,0.00,,,0.00,Wunderground v.1.13,2013-04-06 17:50:00,
2013-04-06 13:55:00,57.1,19.6,30.14,SE,135,4.0,10.0,23,0.00,,,0.00,Wunderground v.1.13,2013-04-06 17:55:00,
2013-04-06 14:00:00,57.1,20.6,30.14,SW,225,2.0,5.0,24,0.00,,,0.00,Wunderground v.1.13,2013-04-06 18:00:00,
2013-04-06 14:05:00,57.5,18.9,30.14,South,180,1.0,3.0,22,0.00,,,0.00,Wunderground v.1.13,2013-04-06 18:05:00,
2013-04-06 14:10:00,57.9,19.2,30.14,SE,135,1.0,5.0,22,0.00,,,0.00,Wunderground v.1.13,2013-04-06 18:10:00,
2013-04-06 14:15:00,58.8,20.0,30.14,SW,225,1.0,3.0,22,0.00,,,0.00,Wunderground v.1.13,2013-04-06 18:15:00,
2013-04-06 14:20:00,59.0,19.1,30.13,ESE,113,2.0,7.0,21,0.00,,,0.00,Wunderground v.1.13,2013-04-06 18:20:00,
2013-04-06 14:25:00,58.9,20.1,30.14,SE,135,5.0,12.0,22,0.00,,,0.00,Wunderground v.1.13,2013-04-06 18:25:00,
2013-04-06 14:30:00,58.6,19.8,30.13,SSE,158,1.0,4.0,22,0.00,,,0.00,Wunderground v.1.13,2013-04-06 18:30:00,
2013-04-06 14:35:00,59.0,20.2,30.13,SW,225,3.0,7.0,22,0.00,,,0.00,Wunderground v.1.13,2013-04-06 18:35:00,
2013-04-06 14:40:00,59.0,20.2,30.13,SE,135,2.0,4.0,22,0.00,,,0.00,Wunderground v.1.13,2013-04-06 18:40:00,
2013-04-06 14:45:00,59.0,19.1,30.14,SE,135,3.0,9.0,21,0.00,,,0.00,Wunderground v.1.13,2013-04-06 18:45:00,
2013-04-06 14:50:00,59.0,19.1,30.13,South,180,2.0,8.0,21,0.00,,,0.00,Wunderground v.1.13,2013-04-06 18:50:00,
2013-04-06 14:55:00,59.0,19.1,30.14,South,180,2.0,6.0,21,0.00,,,0.00,Wunderground v.1.13,2013-04-06 18:55:00,
2013-04-06 15:00:00,59.3,20.4,30.13,SSW,203,2.0,5.0,22,0.00,,,0.00,Wunderground v.1.13,2013-04-06 19:00:00,
2013-04-06 15:05:00,59.7,20.7,30.13,SE,135,1.0,3.0,22,0.00,,,0.00,Wunderground v.1.13,2013-04-06 19:05:00,
2013-04-06 15:10:00,60.5,20.3,30.13,West,270,2.0,4.0,21,0.00,,,0.00,Wunderground v.1.13,2013-04-06 19:10:00,
2013-04-06 15:15:00,60.5,21.4,30.13,SE,135,4.0,7.0,22,0.00,,,0.00,Wunderground v.1.13,2013-04-06 19:15:00,
2013-04-06 15:20:00,60.8,21.7,30.13,SW,225,2.0,6.0,22,0.00,,,0.00,Wunderground v.1.13,2013-04-06 19:20:00,
2013-04-06 15:25:00,60.0,21.0,30.12,SE,135,2.0,8.0,22,0.00,,,0.00,Wunderground v.1.13,2013-04-06 19:25:00,
2013-04-06 15:30:00,60.0,19.9,30.12,SE,135,3.0,9.0,21,0.00,,,0.00,Wunderground v.1.13,2013-04-06 19:30:00,
2013-04-06 15:35:00,59.8,20.8,30.12,SE,135,2.0,8.0,22,0.00,,,0.00,Wunderground v.1.13,2013-04-06 19:35:00,
2013-04-06 15:40:00,59.7,20.7,30.12,South,180,1.0,4.0,22,0.00,,,0.00,Wunderground v.1.13,2013-04-06 19:40:00,
2013-04-06 15:45:00,59.5,20.6,30.12,SE,135,2.0,7.0,22,0.00,,,0.00,Wunderground v.1.13,2013-04-06 19:45:00,
2013-04-06 15:50:00,60.2,21.2,30.12,South,180,1.0,4.0,22,0.00,,,0.00,Wunderground v.1.13,2013-04-06 19:50:00,
2013-04-06 15:55:00,60.5,20.3,30.12,West,270,2.0,5.0,21,0.00,,,0.00,Wunderground v.1.13,2013-04-06 19:55:00,
2013-04-06 16:00:00,60.5,20.3,30.12,West,270,1.0,3.0,21,0.00,,,0.00,Wunderground v.1.13,2013-04-06 20:00:00,
2013-04-06 16:05:00,60.4,21.3,30.12,West,270,1.0,3.0,22,0.00,,,0.00,Wunderground v.1.13,2013-04-06 20:05:00,
2013-04-06 16:10:00,60.2,21.2,30.12,West,270,0.0,1.0,22,0.00,,,0.00,Wunderground v.1.13,2013-04-06 20:10:00,
2013-04-06 16:15:00,60.2,22.2,30.11,West,270,0.0,2.0,23,0.00,,,0.00,Wunderground v.1.13,2013-04-06 20:15:00,
2013-04-06 16:20:00,60.1,21.1,30.11,West,270,0.0,1.0,22,0.00,,,0.00,Wunderground v.1.13,2013-04-06 20:20:00,
2013-04-06 16:25:00,60.0,21.0,30.11,N/A,-737280,0.0,0.0,22,0.00,,,0.00,Wunderground v.1.13,2013-04-06 20:25:00,
2013-04-06 16:30:00,60.0,21.0,30.11,N/A,-737280,0.0,0.0,22,0.00,,,0.00,Wunderground v.1.13,2013-04-06 20:30:00,
2013-04-06 16:35:00,60.1,22.1,30.10,N/A,-737280,0.0,0.0,23,0.00,,,0.00,Wunderground v.1.13,2013-04-06 20:35:00,
2013-04-06 16:40:00,60.1,25.1,30.10,N/A,-737280,0.0,0.0,26,0.00,,,0.00,Wunderground v.1.13,2013-04-06 20:40:00,
2013-04-06 16:45:00,60.0,23.1,30.10,N/A,-737280,0.0,0.0,24,0.00,,,0.00,Wunderground v.1.13,2013-04-06 20:45:00,
2013-04-06 16:50:00,59.8,22.9,30.10,West,270,0.0,1.0,24,0.00,,,0.00,Wunderground v.1.13,2013-04-06 20:50:00,
2013-04-06 16:55:00,59.5,23.6,30.10,West,270,1.0,2.0,25,0.00,,,0.00,Wunderground v.1.13,2013-04-06 20:55:00,
2013-04-06 17:00:00,59.0,23.2,30.10,West,270,1.0,2.0,25,0.00,,,0.00,Wunderground v.1.13,2013-04-06 21:00:00,
2013-04-06 17:05:00,58.9,22.1,30.10,West,270,1.0,2.0,24,0.00,,,0.00,Wunderground v.1.13,2013-04-06 21:05:00,
2013-04-06 17:10:00,58.4,22.7,30.10,West,270,2.0,2.0,25,0.00,,,0.00,Wunderground v.1.13,2013-04-06 21:10:00,
2013-04-06 17:15:00,57.7,25.6,30.10,North,0,2.0,3.0,29,0.00,,,0.00,Wunderground v.1.13,2013-04-06 21:15:00,
2013-04-06 17:20:00,56.8,24.0,30.10,North,0,2.0,3.0,28,0.00,,,0.00,Wunderground v.1.13,2013-04-06 21:20:00,
2013-04-06 17:25:00,56.2,25.9,30.09,North,0,2.0,3.0,31,0.00,,,0.00,Wunderground v.1.13,2013-04-06 21:25:00,
2013-04-06 17:30:00,55.5,27.6,30.09,North,0,1.0,2.0,34,0.00,,,0.00,Wunderground v.1.13,2013-04-06 21:30:00,
2013-04-06 17:35:00,54.8,24.7,30.09,North,0,1.0,2.0,31,0.00,,,0.00,Wunderground v.1.13,2013-04-06 21:35:00,
2013-04-06 17:40:00,54.3,22.7,30.09,North,0,1.0,2.0,29,0.00,,,0.00,Wunderground v.1.13,2013-04-06 21:40:00,
2013-04-06 17:45:00,54.1,25.6,30.09,North,0,1.0,2.0,33,0.00,,,0.00,Wunderground v.1.13,2013-04-06 21:45:00,
2013-04-06 17:50:00,53.8,26.1,30.09,North,0,0.0,2.0,34,0.00,,,0.00,Wunderground v.1.13,2013-04-06 21:50:00,
2013-04-06 17:55:00,53.5,26.5,30.09,North,0,0.0,1.0,35,0.00,,,0.00,Wunderground v.1.13,2013-04-06 21:55:00,
2013-04-06 18:00:00,53.2,26.9,30.09,North,0,0.0,1.0,36,0.00,,,0.00,Wunderground v.1.13,2013-04-06 22:00:00,
2013-04-06 18:05:00,52.8,27.2,30.09,North,0,0.0,1.0,37,0.00,,,0.00,Wunderground v.1.13,2013-04-06 22:05:00,
2013-04-06 18:10:00,52.5,27.6,30.09,N/A,-737280,0.0,0.0,38,0.00,,,0.00,Wunderground v.1.13,2013-04-06 22:10:00,
2013-04-06 18:15:00,52.1,26.6,30.09,North,0,0.0,1.0,37,0.00,,,0.00,Wunderground v.1.13,2013-04-06 22:15:00,
2013-04-06 18:20:00,51.5,27.3,30.09,N/A,-737280,0.0,0.0,39,0.00,,,0.00,Wunderground v.1.13,2013-04-06 22:20:00,
2013-04-06 18:25:00,51.1,25.0,30.08,N/A,-737280,0.0,0.0,36,0.00,,,0.00,Wunderground v.1.13,2013-04-06 22:25:00,
2013-04-06 18:30:00,50.9,26.2,30.09,N/A,-737280,0.0,0.0,38,0.00,,,0.00,Wunderground v.1.13,2013-04-06 22:30:00,
2013-04-06 18:35:00,50.7,24.7,30.08,N/A,-737280,0.0,0.0,36,0.00,,,0.00,Wunderground v.1.13,2013-04-06 22:35:00,
2013-04-06 18:40:00,50.5,25.2,30.08,N/A,-737280,0.0,0.0,37,0.00,,,0.00,Wunderground v.1.13,2013-04-06 22:40:00,
2013-04-06 18:45:00,50.4,24.4,30.08,ENE,68,0.0,1.0,36,0.00,,,0.00,Wunderground v.1.13,2013-04-06 22:45:00,
2013-04-06 18:50:00,50.5,24.5,30.08,ENE,68,0.0,2.0,36,0.00,,,0.00,Wunderground v.1.13,2013-04-06 22:50:00,
2013-04-06 18:55:00,50.9,24.9,30.08,NE,45,0.0,1.0,36,0.00,,,0.00,Wunderground v.1.13,2013-04-06 22:55:00,
2013-04-06 19:00:00,51.1,26.3,30.08,East,90,0.0,2.0,38,0.00,,,0.00,Wunderground v.1.13,2013-04-06 23:00:00,
2013-04-06 19:05:00,51.2,26.4,30.08,East,90,0.0,1.0,38,0.00,,,0.00,Wunderground v.1.13,2013-04-06 23:05:00,
2013-04-06 19:10:00,51.2,25.8,30.08,East,90,0.0,1.0,37,0.00,,,0.00,Wunderground v.1.13,2013-04-06 23:10:00,
2013-04-06 19:15:00,51.2,27.1,30.08,East,90,0.0,1.0,39,0.00,,,0.00,Wunderground v.1.13,2013-04-06 23:15:00,
2013-04-06 19:20:00,51.0,25.6,30.08,East,90,0.0,1.0,37,0.00,,,0.00,Wunderground v.1.13,2013-04-06 23:20:00,
2013-04-06 19:25:00,51.1,24.4,30.08,East,90,0.0,1.0,35,0.00,,,0.00,Wunderground v.1.13,2013-04-06 23:25:00,
2013-04-06 19:30:00,51.3,24.5,30.08,East,90,0.0,1.0,35,0.00,,,0.00,Wunderground v.1.13,2013-04-06 23:30:00,
2013-04-06 19:35:00,51.0,25.6,30.06,East,90,0.0,1.0,37,0.00,,,0.00,Wunderground v.1.13,2013-04-06 23:35:00,
2013-04-06 19:40:00,50.9,27.4,30.06,N/A,-737280,0.0,0.0,40,0.00,,,0.00,Wunderground v.1.13,2013-04-06 23:40:00,
2013-04-06 19:45:00,50.8,26.1,30.06,East,90,0.0,2.0,38,0.00,,,0.00,Wunderground v.1.13,2013-04-06 23:45:00,
2013-04-06 19:50:00,50.8,25.4,30.06,East,90,0.0,1.0,37,0.00,,,0.00,Wunderground v.1.13,2013-04-06 23:50:00,
2013-04-06 19:55:00,51.0,25.6,30.06,East,90,0.0,1.0,37,0.00,,,0.00,Wunderground v.1.13,2013-04-06 23:55:00,
2013-04-06 20:00:00,51.1,25.0,30.05,East,90,0.0,1.0,36,0.00,,,0.00,Wunderground v.1.13,2013-04-07 00:00:00,
2013-04-06 20:05:00,51.3,25.2,30.05,East,90,0.0,1.0,36,0.00,,,0.00,Wunderground v.1.13,2013-04-07 00:05:00,
2013-04-06 20:10:00,51.5,24.7,30.05,East,90,1.0,2.0,35,0.00,,,0.00,Wunderground v.1.13,2013-04-07 00:10:00,
2013-04-06 20:15:00,51.7,24.2,30.05,East,90,0.0,2.0,34,0.00,,,0.00,Wunderground v.1.13,2013-04-07 00:15:00,
2013-04-06 20:20:00,51.9,24.4,30.05,East,90,0.0,1.0,34,0.00,,,0.00,Wunderground v.1.13,2013-04-07 00:20:00,
2013-04-06 20:25:00,52.1,24.6,30.05,East,90,0.0,3.0,34,0.00,,,0.00,Wunderground v.1.13,2013-04-07 00:25:00,
2013-04-06 20:30:00,52.3,24.7,30.04,East,90,0.0,2.0,34,0.00,,,0.00,Wunderground v.1.13,2013-04-07 00:30:00,
2013-04-06 20:35:00,52.4,24.8,30.04,ENE,68,0.0,3.0,34,0.00,,,0.00,Wunderground v.1.13,2013-04-07 00:35:00,
2013-04-06 20:45:00,52.5,24.9,30.04,ESE,113,0.0,3.0,34,0.00,,,0.00,Wunderground v.1.13,2013-04-07 00:45:00,
2013-04-06 20:50:00,52.5,24.9,30.04,ESE,113,0.0,2.0,34,0.00,,,0.00,Wunderground v.1.13,2013-04-07 00:50:00,
2013-04-06 20:55:00,52.6,25.0,30.03,ESE,113,0.0,2.0,34,0.00,,,0.00,Wunderground v.1.13,2013-04-07 00:55:00,
2013-04-06 21:00:00,52.6,25.0,30.03,ESE,113,0.0,1.0,34,0.00,,,0.00,Wunderground v.1.13,2013-04-07 01:00:00,
2013-04-06 21:05:00,52.6,25.0,30.03,East,90,0.0,3.0,34,0.00,,,0.00,Wunderground v.1.13,2013-04-07 01:05:00,
2013-04-06 21:10:00,52.5,25.6,30.03,East,90,0.0,2.0,35,0.00,,,0.00,Wunderground v.1.13,2013-04-07 01:10:00,
2013-04-06 21:15:00,52.5,25.6,30.03,SE,135,0.0,3.0,35,0.00,,,0.00,Wunderground v.1.13,2013-04-07 01:15:00,
2013-04-06 21:20:00,52.5,25.6,30.02,East,90,0.0,2.0,35,0.00,,,0.00,Wunderground v.1.13,2013-04-07 01:20:00,
2013-04-06 21:25:00,52.6,25.0,30.02,SE,135,0.0,4.0,34,0.00,,,0.00,Wunderground v.1.13,2013-04-07 01:25:00,
2013-04-06 21:30:00,52.7,26.5,30.02,SE,135,0.0,4.0,36,0.00,,,0.00,Wunderground v.1.13,2013-04-07 01:30:00,
2013-04-06 21:35:00,52.7,26.5,30.02,SE,135,0.0,2.0,36,0.00,,,0.00,Wunderground v.1.13,2013-04-07 01:35:00,
2013-04-06 21:40:00,52.6,26.4,30.03,N/A,-737280,0.0,0.0,36,0.00,,,0.00,Wunderground v.1.13,2013-04-07 01:40:00,
2013-04-06 21:45:00,52.5,26.3,30.02,SE,135,0.0,1.0,36,0.00,,,0.00,Wunderground v.1.13,2013-04-07 01:45:00,
2013-04-06 21:50:00,52.4,26.2,30.02,ESE,113,0.0,2.0,36,0.00,,,0.00,Wunderground v.1.13,2013-04-07 01:50:00,
2013-04-06 21:55:00,52.3,26.8,30.02,ESE,113,0.0,2.0,37,0.00,,,0.00,Wunderground v.1.13,2013-04-07 01:55:00,
2013-04-06 22:00:00,52.4,26.2,30.02,ESE,113,1.0,4.0,36,0.00,,,0.00,Wunderground v.1.13,2013-04-07 02:00:00,
2013-04-06 22:05:00,52.6,26.4,30.02,ESE,113,0.0,1.0,36,0.00,,,0.00,Wunderground v.1.13,2013-04-07 02:05:00,
2013-04-06 22:10:00,52.8,26.6,30.02,ESE,113,0.0,3.0,36,0.00,,,0.00,Wunderground v.1.13,2013-04-07 02:10:00,
2013-04-06 22:15:00,53.3,26.3,30.01,East,90,1.0,4.0,35,0.00,,,0.00,Wunderground v.1.13,2013-04-07 02:15:00,
2013-04-06 22:20:00,53.6,27.3,30.01,SE,135,1.0,4.0,36,0.00,,,0.00,Wunderground v.1.13,2013-04-07 02:20:00,
2013-04-06 22:25:00,53.7,27.4,30.01,SE,135,1.0,3.0,36,0.00,,,0.00,Wunderground v.1.13,2013-04-07 02:25:00,
2013-04-06 22:30:00,53.9,26.8,30.01,SE,135,1.0,6.0,35,0.00,,,0.00,Wunderground v.1.13,2013-04-07 02:30:00,
2013-04-06 22:35:00,54.1,27.0,30.01,ESE,113,1.0,5.0,35,0.00,,,0.00,Wunderground v.1.13,2013-04-07 02:35:00,
2013-04-06 22:40:00,54.2,27.8,30.01,SE,135,0.0,3.0,36,0.00,,,0.00,Wunderground v.1.13,2013-04-07 02:40:00,
2013-04-06 22:45:00,54.3,27.9,30.01,SE,135,1.0,4.0,36,0.00,,,0.00,Wunderground v.1.13,2013-04-07 02:45:00,
2013-04-06 22:50:00,54.4,28.0,30.01,East,90,1.0,6.0,36,0.00,,,0.00,Wunderground v.1.13,2013-04-07 02:50:00,
2013-04-06 22:55:00,54.5,28.1,30.01,ESE,113,1.0,5.0,36,0.00,,,0.00,Wunderground v.1.13,2013-04-07 02:55:00,
2013-04-06 23:00:00,54.4,28.0,30.01,East,90,0.0,2.0,36,0.00,,,0.00,Wunderground v.1.13,2013-04-07 03:00:00,
2013-04-06 23:05:00,54.4,28.0,30.01,East,90,1.0,2.0,36,0.00,,,0.00,Wunderground v.1.13,2013-04-07 03:05:00,
2013-04-06 23:10:00,54.3,27.9,30.00,ESE,113,1.0,2.0,36,0.00,,,0.00,Wunderground v.1.13,2013-04-07 03:10:00,
2013-04-06 23:15:00,54.3,28.6,30.00,SE,135,1.0,5.0,37,0.00,,,0.00,Wunderground v.1.13,2013-04-07 03:15:00,
2013-04-06 23:20:00,54.3,28.6,30.00,ESE,113,1.0,3.0,37,0.00,,,0.00,Wunderground v.1.13,2013-04-07 03:20:00,
2013-04-06 23:25:00,54.2,28.5,30.00,ESE,113,0.0,2.0,37,0.00,,,0.00,Wunderground v.1.13,2013-04-07 03:25:00,
2013-04-06 23:30:00,54.2,28.5,30.00,ESE,113,1.0,3.0,37,0.00,,,0.00,Wunderground v.1.13,2013-04-07 03:30:00,
2013-04-06 23:35:00,54.1,28.4,30.00,ESE,113,0.0,2.0,37,0.00,,,0.00,Wunderground v.1.13,2013-04-07 03:35:00,
2013-04-06 23:40:00,54.1,28.4,30.00,ESE,113,1.0,3.0,37,0.00,,,0.00,Wunderground v.1.13,2013-04-07 03:40:00,
2013-04-06 23:45:00,54.1,29.0,30.00,East,90,1.0,3.0,38,0.00,,,0.00,Wunderground v.1.13,2013-04-07 03:45:00,
2013-04-06 23:50:00,54.0,28.9,29.99,ESE,113,1.0,3.0,38,0.00,,,0.00,Wunderground v.1.13,2013-04-07 03:50:00,
2013-04-06 23:55:00,53.9,28.8,29.99,NE,45,1.0,3.0,38,0.00,,,0.00,Wunderground v.1.13,2013-04-07 03:55:00,